sensor_id;sensor_type;location;lat;lon;timestamp;P1;durP1;ratioP1;P2;durP2;ratioP2
74528;SDS011;63009;52.584;5.932;2023-07-22T00:00:28;15.60;;;6.07;;
74528;SDS011;63009;52.584;5.932;2023-07-22T00:02:53;13.05;;;5.32;;
74528;SDS011;63009;52.584;5.932;2023-07-22T00:05:19;12.00;;;5.63;;
74528;SDS011;63009;52.584;5.932;2023-07-22T00:07:48;14.57;;;5.78;;
74528;SDS011;63009;52.584;5.932;2023-07-22T00:10:14;14.27;;;5.65;;
74528;SDS011;63009;52.584;5.932;2023-07-22T00:12:39;13.70;;;5.95;;
74528;SDS011;63009;52.584;5.932;2023-07-22T00:15:05;13.10;;;5.35;;
74528;SDS011;63009;52.584;5.932;2023-07-22T00:17:31;15.07;;;6.30;;
74528;SDS011;63009;52.584;5.932;2023-07-22T00:19:56;12.25;;;5.35;;
74528;SDS011;63009;52.584;5.932;2023-07-22T00:22:21;13.93;;;6.47;;
74528;SDS011;63009;52.584;5.932;2023-07-22T00:24:47;12.20;;;5.38;;
74528;SDS011;63009;52.584;5.932;2023-07-22T00:27:12;12.95;;;5.70;;
74528;SDS011;63009;52.584;5.932;2023-07-22T00:29:38;14.83;;;5.80;;
74528;SDS011;63009;52.584;5.932;2023-07-22T00:32:04;15.50;;;5.23;;
74528;SDS011;63009;52.584;5.932;2023-07-22T00:34:33;15.23;;;5.45;;
74528;SDS011;63009;52.584;5.932;2023-07-22T00:36:59;12.95;;;5.60;;
74528;SDS011;63009;52.584;5.932;2023-07-22T00:39:24;12.80;;;5.20;;
74528;SDS011;63009;52.584;5.932;2023-07-22T00:41:49;14.37;;;5.50;;
74528;SDS011;63009;52.584;5.932;2023-07-22T00:44:15;14.43;;;5.93;;
74528;SDS011;63009;52.584;5.932;2023-07-22T00:46:40;16.13;;;5.80;;
74528;SDS011;63009;52.584;5.932;2023-07-22T00:49:06;14.30;;;6.63;;
74528;SDS011;63009;52.584;5.932;2023-07-22T00:51:32;16.25;;;6.55;;
74528;SDS011;63009;52.584;5.932;2023-07-22T00:53:58;14.05;;;5.50;;
74528;SDS011;63009;52.584;5.932;2023-07-22T00:56:23;13.98;;;5.57;;
74528;SDS011;63009;52.584;5.932;2023-07-22T00:58:49;14.43;;;6.13;;
74528;SDS011;63009;52.584;5.932;2023-07-22T01:01:14;14.38;;;6.05;;
74528;SDS011;63009;52.584;5.932;2023-07-22T01:03:39;15.03;;;6.23;;
74528;SDS011;63009;52.584;5.932;2023-07-22T01:06:06;13.68;;;5.70;;
74528;SDS011;63009;52.584;5.932;2023-07-22T01:08:32;14.02;;;5.78;;
74528;SDS011;63009;52.584;5.932;2023-07-22T01:10:57;14.97;;;6.57;;
74528;SDS011;63009;52.584;5.932;2023-07-22T01:13:22;15.10;;;6.80;;
74528;SDS011;63009;52.584;5.932;2023-07-22T01:15:47;17.13;;;6.50;;
74528;SDS011;63009;52.584;5.932;2023-07-22T01:18:13;13.70;;;6.15;;
74528;SDS011;63009;52.584;5.932;2023-07-22T01:20:39;16.85;;;6.03;;
74528;SDS011;63009;52.584;5.932;2023-07-22T01:23:04;14.35;;;5.97;;
74528;SDS011;63009;52.584;5.932;2023-07-22T01:25:31;13.32;;;6.05;;
74528;SDS011;63009;52.584;5.932;2023-07-22T01:27:56;15.20;;;5.63;;
74528;SDS011;63009;52.584;5.932;2023-07-22T01:30:22;14.33;;;5.80;;
74528;SDS011;63009;52.584;5.932;2023-07-22T01:32:47;14.65;;;5.65;;
74528;SDS011;63009;52.584;5.932;2023-07-22T01:35:13;13.93;;;5.80;;
74528;SDS011;63009;52.584;5.932;2023-07-22T01:37:38;11.85;;;5.63;;
74528;SDS011;63009;52.584;5.932;2023-07-22T01:40:04;13.82;;;5.68;;
74528;SDS011;63009;52.584;5.932;2023-07-22T01:42:39;13.50;;;5.78;;
74528;SDS011;63009;52.584;5.932;2023-07-22T01:45:05;14.30;;;6.45;;
74528;SDS011;63009;52.584;5.932;2023-07-22T01:47:33;15.05;;;6.55;;
74528;SDS011;63009;52.584;5.932;2023-07-22T01:50:02;15.48;;;6.22;;
74528;SDS011;63009;52.584;5.932;2023-07-22T01:52:29;15.13;;;6.20;;
74528;SDS011;63009;52.584;5.932;2023-07-22T01:54:54;15.57;;;6.82;;
74528;SDS011;63009;52.584;5.932;2023-07-22T01:57:19;12.60;;;5.33;;
74528;SDS011;63009;52.584;5.932;2023-07-22T01:59:45;13.63;;;5.67;;
74528;SDS011;63009;52.584;5.932;2023-07-22T02:02:10;14.97;;;5.47;;
74528;SDS011;63009;52.584;5.932;2023-07-22T02:04:35;14.20;;;6.30;;
74528;SDS011;63009;52.584;5.932;2023-07-22T02:07:00;14.23;;;6.83;;
74528;SDS011;63009;52.584;5.932;2023-07-22T02:09:26;13.10;;;5.67;;
74528;SDS011;63009;52.584;5.932;2023-07-22T02:11:52;15.38;;;6.25;;
74528;SDS011;63009;52.584;5.932;2023-07-22T02:14:18;13.32;;;5.88;;
74528;SDS011;63009;52.584;5.932;2023-07-22T02:16:43;12.30;;;6.33;;
74528;SDS011;63009;52.584;5.932;2023-07-22T02:19:08;16.27;;;6.50;;
74528;SDS011;63009;52.584;5.932;2023-07-22T02:21:34;14.53;;;6.37;;
74528;SDS011;63009;52.584;5.932;2023-07-22T02:23:59;14.73;;;7.00;;
74528;SDS011;63009;52.584;5.932;2023-07-22T02:26:24;14.40;;;6.22;;
74528;SDS011;63009;52.584;5.932;2023-07-22T02:28:50;16.70;;;6.57;;
74528;SDS011;63009;52.584;5.932;2023-07-22T02:31:15;15.63;;;7.97;;
74528;SDS011;63009;52.584;5.932;2023-07-22T02:33:40;15.97;;;7.27;;
74528;SDS011;63009;52.584;5.932;2023-07-22T02:36:05;14.02;;;6.38;;
74528;SDS011;63009;52.584;5.932;2023-07-22T02:38:31;14.20;;;6.38;;
74528;SDS011;63009;52.584;5.932;2023-07-22T02:41:02;15.05;;;7.35;;
74528;SDS011;63009;52.584;5.932;2023-07-22T02:43:31;16.23;;;7.60;;
74528;SDS011;63009;52.584;5.932;2023-07-22T02:45:56;20.65;;;7.45;;
74528;SDS011;63009;52.584;5.932;2023-07-22T02:48:22;14.52;;;6.43;;
74528;SDS011;63009;52.584;5.932;2023-07-22T02:50:48;15.57;;;7.15;;
74528;SDS011;63009;52.584;5.932;2023-07-22T02:53:13;14.43;;;6.97;;
74528;SDS011;63009;52.584;5.932;2023-07-22T02:55:39;14.80;;;6.43;;
74528;SDS011;63009;52.584;5.932;2023-07-22T02:58:04;16.17;;;7.50;;
74528;SDS011;63009;52.584;5.932;2023-07-22T03:00:30;16.27;;;7.57;;
74528;SDS011;63009;52.584;5.932;2023-07-22T03:02:56;14.35;;;6.68;;
74528;SDS011;63009;52.584;5.932;2023-07-22T03:05:25;16.67;;;8.18;;
74528;SDS011;63009;52.584;5.932;2023-07-22T03:07:54;16.70;;;7.43;;
74528;SDS011;63009;52.584;5.932;2023-07-22T03:10:19;16.73;;;7.40;;
74528;SDS011;63009;52.584;5.932;2023-07-22T03:12:45;18.27;;;8.30;;
74528;SDS011;63009;52.584;5.932;2023-07-22T03:15:10;16.30;;;8.20;;
74528;SDS011;63009;52.584;5.932;2023-07-22T03:17:37;18.15;;;7.65;;
74528;SDS011;63009;52.584;5.932;2023-07-22T03:20:04;16.88;;;7.13;;
74528;SDS011;63009;52.584;5.932;2023-07-22T03:22:39;15.73;;;7.78;;
74528;SDS011;63009;52.584;5.932;2023-07-22T03:25:05;18.67;;;8.82;;
74528;SDS011;63009;52.584;5.932;2023-07-22T03:27:33;16.48;;;8.45;;
74528;SDS011;63009;52.584;5.932;2023-07-22T03:29:59;15.07;;;7.72;;
74528;SDS011;63009;52.584;5.932;2023-07-22T03:32:24;20.57;;;9.03;;
74528;SDS011;63009;52.584;5.932;2023-07-22T03:34:49;20.20;;;8.70;;
74528;SDS011;63009;52.584;5.932;2023-07-22T03:37:15;18.88;;;8.05;;
74528;SDS011;63009;52.584;5.932;2023-07-22T03:39:40;19.87;;;8.50;;
74528;SDS011;63009;52.584;5.932;2023-07-22T03:42:05;20.00;;;9.10;;
74528;SDS011;63009;52.584;5.932;2023-07-22T03:44:30;18.40;;;8.55;;
74528;SDS011;63009;52.584;5.932;2023-07-22T03:46:56;19.77;;;9.43;;
74528;SDS011;63009;52.584;5.932;2023-07-22T03:49:21;22.13;;;8.55;;
74528;SDS011;63009;52.584;5.932;2023-07-22T03:51:46;19.50;;;8.43;;
74528;SDS011;63009;52.584;5.932;2023-07-22T03:54:12;21.83;;;9.33;;
74528;SDS011;63009;52.584;5.932;2023-07-22T03:56:39;19.73;;;9.00;;
74528;SDS011;63009;52.584;5.932;2023-07-22T03:59:05;24.30;;;10.52;;
74528;SDS011;63009;52.584;5.932;2023-07-22T04:01:31;19.80;;;10.55;;
74528;SDS011;63009;52.584;5.932;2023-07-22T04:03:56;21.23;;;10.23;;
74528;SDS011;63009;52.584;5.932;2023-07-22T04:06:21;20.67;;;10.50;;
74528;SDS011;63009;52.584;5.932;2023-07-22T04:08:47;23.10;;;9.70;;
74528;SDS011;63009;52.584;5.932;2023-07-22T04:11:12;20.60;;;9.13;;
74528;SDS011;63009;52.584;5.932;2023-07-22T04:13:39;22.05;;;10.48;;
74528;SDS011;63009;52.584;5.932;2023-07-22T04:16:04;22.52;;;10.00;;
74528;SDS011;63009;52.584;5.932;2023-07-22T04:18:30;22.70;;;10.57;;
74528;SDS011;63009;52.584;5.932;2023-07-22T04:20:59;22.67;;;9.93;;
74528;SDS011;63009;52.584;5.932;2023-07-22T04:23:25;22.95;;;10.82;;
74528;SDS011;63009;52.584;5.932;2023-07-22T04:25:51;24.38;;;12.88;;
74528;SDS011;63009;52.584;5.932;2023-07-22T04:28:16;23.00;;;10.60;;
74528;SDS011;63009;52.584;5.932;2023-07-22T04:30:41;25.90;;;11.27;;
74528;SDS011;63009;52.584;5.932;2023-07-22T04:33:07;25.10;;;11.53;;
74528;SDS011;63009;52.584;5.932;2023-07-22T04:35:37;23.95;;;10.40;;
74528;SDS011;63009;52.584;5.932;2023-07-22T04:38:03;24.17;;;10.32;;
74528;SDS011;63009;52.584;5.932;2023-07-22T04:40:29;21.17;;;10.60;;
74528;SDS011;63009;52.584;5.932;2023-07-22T04:42:55;22.85;;;10.50;;
74528;SDS011;63009;52.584;5.932;2023-07-22T04:45:24;24.30;;;11.40;;
74528;SDS011;63009;52.584;5.932;2023-07-22T04:47:50;24.37;;;10.63;;
74528;SDS011;63009;52.584;5.932;2023-07-22T04:50:15;25.20;;;10.80;;
74528;SDS011;63009;52.584;5.932;2023-07-22T04:52:42;26.08;;;11.30;;
74528;SDS011;63009;52.584;5.932;2023-07-22T04:55:09;24.45;;;11.25;;
74528;SDS011;63009;52.584;5.932;2023-07-22T04:57:35;23.88;;;12.13;;
74528;SDS011;63009;52.584;5.932;2023-07-22T05:00:02;26.05;;;10.68;;
74528;SDS011;63009;52.584;5.932;2023-07-22T05:02:32;25.88;;;12.35;;
74528;SDS011;63009;52.584;5.932;2023-07-22T05:04:57;23.58;;;11.68;;
74528;SDS011;63009;52.584;5.932;2023-07-22T05:07:22;27.57;;;13.13;;
74528;SDS011;63009;52.584;5.932;2023-07-22T05:09:48;24.98;;;12.40;;
74528;SDS011;63009;52.584;5.932;2023-07-22T05:12:15;26.45;;;11.73;;
74528;SDS011;63009;52.584;5.932;2023-07-22T05:14:40;27.30;;;12.35;;
74528;SDS011;63009;52.584;5.932;2023-07-22T05:17:05;24.60;;;11.70;;
74528;SDS011;63009;52.584;5.932;2023-07-22T05:19:31;26.70;;;13.32;;
74528;SDS011;63009;52.584;5.932;2023-07-22T05:21:56;27.80;;;12.68;;
74528;SDS011;63009;52.584;5.932;2023-07-22T05:24:21;26.87;;;12.50;;
74528;SDS011;63009;52.584;5.932;2023-07-22T05:26:47;27.73;;;12.65;;
74528;SDS011;63009;52.584;5.932;2023-07-22T05:29:12;29.83;;;12.83;;
74528;SDS011;63009;52.584;5.932;2023-07-22T05:31:37;28.37;;;11.97;;
74528;SDS011;63009;52.584;5.932;2023-07-22T05:34:03;25.10;;;11.50;;
74528;SDS011;63009;52.584;5.932;2023-07-22T05:36:29;24.80;;;12.27;;
74528;SDS011;63009;52.584;5.932;2023-07-22T05:38:54;24.38;;;11.57;;
74528;SDS011;63009;52.584;5.932;2023-07-22T05:41:20;23.92;;;10.88;;
74528;SDS011;63009;52.584;5.932;2023-07-22T05:43:45;24.73;;;12.55;;
74528;SDS011;63009;52.584;5.932;2023-07-22T05:46:10;24.00;;;10.83;;
74528;SDS011;63009;52.584;5.932;2023-07-22T05:48:36;25.77;;;12.43;;
74528;SDS011;63009;52.584;5.932;2023-07-22T05:51:01;27.57;;;13.13;;
74528;SDS011;63009;52.584;5.932;2023-07-22T05:53:26;23.90;;;11.77;;
74528;SDS011;63009;52.584;5.932;2023-07-22T05:55:52;23.40;;;11.93;;
74528;SDS011;63009;52.584;5.932;2023-07-22T05:58:17;25.37;;;11.43;;
74528;SDS011;63009;52.584;5.932;2023-07-22T06:00:43;23.33;;;11.68;;
74528;SDS011;63009;52.584;5.932;2023-07-22T06:03:08;26.15;;;12.95;;
74528;SDS011;63009;52.584;5.932;2023-07-22T06:05:34;24.65;;;12.82;;
74528;SDS011;63009;52.584;5.932;2023-07-22T06:07:59;25.48;;;12.40;;
74528;SDS011;63009;52.584;5.932;2023-07-22T06:10:24;20.20;;;10.35;;
74528;SDS011;63009;52.584;5.932;2023-07-22T06:12:50;23.13;;;12.75;;
74528;SDS011;63009;52.584;5.932;2023-07-22T06:15:15;22.00;;;10.90;;
74528;SDS011;63009;52.584;5.932;2023-07-22T06:17:40;23.30;;;11.57;;
74528;SDS011;63009;52.584;5.932;2023-07-22T06:20:06;22.20;;;11.17;;
74528;SDS011;63009;52.584;5.932;2023-07-22T06:22:33;26.70;;;11.98;;
74528;SDS011;63009;52.584;5.932;2023-07-22T06:24:59;21.13;;;10.75;;
74528;SDS011;63009;52.584;5.932;2023-07-22T06:27:24;21.17;;;10.50;;
74528;SDS011;63009;52.584;5.932;2023-07-22T06:29:49;19.07;;;10.17;;
74528;SDS011;63009;52.584;5.932;2023-07-22T06:32:14;19.83;;;10.70;;
74528;SDS011;63009;52.584;5.932;2023-07-22T06:34:40;19.27;;;9.53;;
74528;SDS011;63009;52.584;5.932;2023-07-22T06:37:05;21.17;;;10.00;;
74528;SDS011;63009;52.584;5.932;2023-07-22T06:39:30;17.90;;;8.75;;
74528;SDS011;63009;52.584;5.932;2023-07-22T06:41:56;18.45;;;9.30;;
74528;SDS011;63009;52.584;5.932;2023-07-22T06:44:21;18.70;;;8.53;;
74528;SDS011;63009;52.584;5.932;2023-07-22T06:46:46;18.83;;;8.70;;
74528;SDS011;63009;52.584;5.932;2023-07-22T06:49:11;18.47;;;8.80;;
74528;SDS011;63009;52.584;5.932;2023-07-22T06:51:37;17.95;;;9.00;;
74528;SDS011;63009;52.584;5.932;2023-07-22T06:54:02;18.38;;;9.27;;
74528;SDS011;63009;52.584;5.932;2023-07-22T06:56:28;20.02;;;8.55;;
74528;SDS011;63009;52.584;5.932;2023-07-22T06:58:53;17.02;;;8.23;;
74528;SDS011;63009;52.584;5.932;2023-07-22T07:01:19;20.33;;;8.93;;
74528;SDS011;63009;52.584;5.932;2023-07-22T07:03:44;18.88;;;8.68;;
74528;SDS011;63009;52.584;5.932;2023-07-22T07:06:12;17.48;;;8.05;;
74528;SDS011;63009;52.584;5.932;2023-07-22T07:08:37;17.80;;;8.32;;
74528;SDS011;63009;52.584;5.932;2023-07-22T07:11:02;18.40;;;7.97;;
74528;SDS011;63009;52.584;5.932;2023-07-22T07:13:28;17.88;;;7.80;;
74528;SDS011;63009;52.584;5.932;2023-07-22T07:15:54;20.40;;;9.35;;
74528;SDS011;63009;52.584;5.932;2023-07-22T07:18:19;18.60;;;7.93;;
74528;SDS011;63009;52.584;5.932;2023-07-22T07:20:45;19.48;;;8.38;;
74528;SDS011;63009;52.584;5.932;2023-07-22T07:23:10;16.47;;;8.07;;
74528;SDS011;63009;52.584;5.932;2023-07-22T07:25:35;18.67;;;8.63;;
74528;SDS011;63009;52.584;5.932;2023-07-22T07:28:01;18.33;;;8.27;;
74528;SDS011;63009;52.584;5.932;2023-07-22T07:30:26;17.88;;;8.63;;
74528;SDS011;63009;52.584;5.932;2023-07-22T07:32:51;19.03;;;9.20;;
74528;SDS011;63009;52.584;5.932;2023-07-22T07:35:17;18.20;;;8.70;;
74528;SDS011;63009;52.584;5.932;2023-07-22T07:37:42;17.10;;;8.10;;
74528;SDS011;63009;52.584;5.932;2023-07-22T07:40:07;18.60;;;7.80;;
74528;SDS011;63009;52.584;5.932;2023-07-22T07:42:33;17.65;;;8.23;;
74528;SDS011;63009;52.584;5.932;2023-07-22T07:44:58;15.57;;;8.27;;
74528;SDS011;63009;52.584;5.932;2023-07-22T07:47:24;17.27;;;8.30;;
74528;SDS011;63009;52.584;5.932;2023-07-22T07:49:49;19.25;;;8.43;;
74528;SDS011;63009;52.584;5.932;2023-07-22T07:52:14;19.57;;;8.77;;
74528;SDS011;63009;52.584;5.932;2023-07-22T07:54:40;17.98;;;8.63;;
74528;SDS011;63009;52.584;5.932;2023-07-22T07:57:05;14.37;;;7.40;;
74528;SDS011;63009;52.584;5.932;2023-07-22T07:59:31;15.55;;;7.32;;
74528;SDS011;63009;52.584;5.932;2023-07-22T08:01:56;17.30;;;7.97;;
74528;SDS011;63009;52.584;5.932;2023-07-22T08:04:21;16.10;;;7.73;;
74528;SDS011;63009;52.584;5.932;2023-07-22T08:06:48;17.05;;;8.52;;
74528;SDS011;63009;52.584;5.932;2023-07-22T08:09:14;15.35;;;7.30;;
74528;SDS011;63009;52.584;5.932;2023-07-22T08:11:43;14.75;;;6.88;;
74528;SDS011;63009;52.584;5.932;2023-07-22T08:14:09;14.20;;;6.55;;
74528;SDS011;63009;52.584;5.932;2023-07-22T08:16:35;14.48;;;6.90;;
74528;SDS011;63009;52.584;5.932;2023-07-22T08:19:00;12.97;;;6.20;;
74528;SDS011;63009;52.584;5.932;2023-07-22T08:21:25;14.77;;;7.10;;
74528;SDS011;63009;52.584;5.932;2023-07-22T08:23:50;15.40;;;7.07;;
74528;SDS011;63009;52.584;5.932;2023-07-22T08:26:16;15.00;;;7.17;;
74528;SDS011;63009;52.584;5.932;2023-07-22T08:28:45;14.55;;;6.75;;
74528;SDS011;63009;52.584;5.932;2023-07-22T08:31:12;17.10;;;7.15;;
74528;SDS011;63009;52.584;5.932;2023-07-22T08:33:38;15.57;;;7.68;;
74528;SDS011;63009;52.584;5.932;2023-07-22T08:36:03;15.73;;;7.00;;
74528;SDS011;63009;52.584;5.932;2023-07-22T08:38:29;14.90;;;7.22;;
74528;SDS011;63009;52.584;5.932;2023-07-22T08:40:54;16.90;;;7.15;;
74528;SDS011;63009;52.584;5.932;2023-07-22T08:43:20;16.52;;;7.05;;
74528;SDS011;63009;52.584;5.932;2023-07-22T08:45:46;16.70;;;7.65;;
74528;SDS011;63009;52.584;5.932;2023-07-22T08:48:14;17.38;;;7.32;;
74528;SDS011;63009;52.584;5.932;2023-07-22T08:53:19;17.17;;;8.60;;
74528;SDS011;63009;52.584;5.932;2023-07-22T08:55:45;20.65;;;9.55;;
74528;SDS011;63009;52.584;5.932;2023-07-22T08:58:11;16.13;;;8.43;;
74528;SDS011;63009;52.584;5.932;2023-07-22T09:00:38;21.90;;;9.32;;
74528;SDS011;63009;52.584;5.932;2023-07-22T09:03:04;19.48;;;8.40;;
74528;SDS011;63009;52.584;5.932;2023-07-22T09:05:33;18.58;;;7.80;;
74528;SDS011;63009;52.584;5.932;2023-07-22T09:08:03;18.75;;;8.32;;
74528;SDS011;63009;52.584;5.932;2023-07-22T09:10:32;18.77;;;7.43;;
74528;SDS011;63009;52.584;5.932;2023-07-22T09:12:58;13.77;;;7.20;;
74528;SDS011;63009;52.584;5.932;2023-07-22T09:15:24;17.25;;;7.43;;
74528;SDS011;63009;52.584;5.932;2023-07-22T09:17:50;16.92;;;7.57;;
74528;SDS011;63009;52.584;5.932;2023-07-22T09:20:16;16.48;;;8.35;;
74528;SDS011;63009;52.584;5.932;2023-07-22T09:22:45;23.00;;;8.27;;
74528;SDS011;63009;52.584;5.932;2023-07-22T09:25:22;17.67;;;7.43;;
74528;SDS011;63009;52.584;5.932;2023-07-22T09:27:49;16.25;;;7.07;;
74528;SDS011;63009;52.584;5.932;2023-07-22T09:30:50;17.15;;;8.23;;
74528;SDS011;63009;52.584;5.932;2023-07-22T09:33:21;14.05;;;6.55;;
74528;SDS011;63009;52.584;5.932;2023-07-22T09:35:47;13.70;;;6.38;;
74528;SDS011;63009;52.584;5.932;2023-07-22T09:38:14;14.95;;;7.00;;
74528;SDS011;63009;52.584;5.932;2023-07-22T09:40:46;19.30;;;8.30;;
74528;SDS011;63009;52.584;5.932;2023-07-22T09:43:12;15.27;;;7.53;;
74528;SDS011;63009;52.584;5.932;2023-07-22T09:45:37;13.73;;;6.73;;
74528;SDS011;63009;52.584;5.932;2023-07-22T09:48:03;13.65;;;6.95;;
74528;SDS011;63009;52.584;5.932;2023-07-22T09:50:28;13.82;;;6.22;;
74528;SDS011;63009;52.584;5.932;2023-07-22T09:52:55;14.07;;;5.90;;
74528;SDS011;63009;52.584;5.932;2023-07-22T09:55:27;11.15;;;5.25;;
74528;SDS011;63009;52.584;5.932;2023-07-22T09:58:03;10.73;;;4.60;;
74528;SDS011;63009;52.584;5.932;2023-07-22T10:00:34;12.70;;;4.65;;
74528;SDS011;63009;52.584;5.932;2023-07-22T10:03:01;10.82;;;5.10;;
74528;SDS011;63009;52.584;5.932;2023-07-22T10:05:29;13.75;;;5.25;;
74528;SDS011;63009;52.584;5.932;2023-07-22T10:07:59;11.25;;;5.53;;
74528;SDS011;63009;52.584;5.932;2023-07-22T10:10:31;12.17;;;4.90;;
74528;SDS011;63009;52.584;5.932;2023-07-22T10:12:58;11.27;;;5.10;;
74528;SDS011;63009;52.584;5.932;2023-07-22T10:15:25;14.55;;;5.38;;
74528;SDS011;63009;52.584;5.932;2023-07-22T10:17:53;11.52;;;5.82;;
74528;SDS011;63009;52.584;5.932;2023-07-22T10:20:21;13.13;;;5.38;;
74528;SDS011;63009;52.584;5.932;2023-07-22T10:22:47;13.63;;;5.78;;
74528;SDS011;63009;52.584;5.932;2023-07-22T10:25:13;12.27;;;5.95;;
74528;SDS011;63009;52.584;5.932;2023-07-22T10:27:40;13.63;;;5.82;;
74528;SDS011;63009;52.584;5.932;2023-07-22T10:30:06;13.70;;;7.50;;
74528;SDS011;63009;52.584;5.932;2023-07-22T10:32:36;15.02;;;9.48;;
74528;SDS011;63009;52.584;5.932;2023-07-22T10:35:02;16.40;;;9.45;;
74528;SDS011;63009;52.584;5.932;2023-07-22T10:37:32;15.63;;;10.27;;
74528;SDS011;63009;52.584;5.932;2023-07-22T10:40:01;16.25;;;11.77;;
74528;SDS011;63009;52.584;5.932;2023-07-22T10:42:50;20.35;;;11.73;;
74528;SDS011;63009;52.584;5.932;2023-07-22T10:45:23;16.67;;;10.85;;
74528;SDS011;63009;52.584;5.932;2023-07-22T10:47:59;21.95;;;10.63;;
74528;SDS011;63009;52.584;5.932;2023-07-22T10:53:10;16.10;;;10.35;;
74528;SDS011;63009;52.584;5.932;2023-07-22T10:58:55;14.30;;;8.75;;
74528;SDS011;63009;52.584;5.932;2023-07-22T11:14:27;11.82;;;6.40;;
74528;SDS011;63009;52.584;5.932;2023-07-22T11:16:54;12.52;;;6.47;;
74528;SDS011;63009;52.584;5.932;2023-07-22T11:19:22;10.52;;;6.00;;
74528;SDS011;63009;52.584;5.932;2023-07-22T11:21:49;13.00;;;6.40;;
74528;SDS011;63009;52.584;5.932;2023-07-22T11:24:15;10.05;;;5.60;;
74528;SDS011;63009;52.584;5.932;2023-07-22T11:26:42;9.95;;;6.00;;
74528;SDS011;63009;52.584;5.932;2023-07-22T11:29:08;10.68;;;5.85;;
74528;SDS011;63009;52.584;5.932;2023-07-22T11:31:35;11.63;;;6.90;;
74528;SDS011;63009;52.584;5.932;2023-07-22T11:34:18;13.65;;;6.65;;
74528;SDS011;63009;52.584;5.932;2023-07-22T11:36:45;12.32;;;7.03;;
74528;SDS011;63009;52.584;5.932;2023-07-22T11:39:12;11.98;;;6.20;;
74528;SDS011;63009;52.584;5.932;2023-07-22T11:44:08;11.77;;;7.03;;
74528;SDS011;63009;52.584;5.932;2023-07-22T11:46:35;13.38;;;7.88;;
74528;SDS011;63009;52.584;5.932;2023-07-22T11:49:01;13.52;;;8.20;;
74528;SDS011;63009;52.584;5.932;2023-07-22T11:51:27;13.27;;;6.68;;
74528;SDS011;63009;52.584;5.932;2023-07-22T11:53:53;10.68;;;5.65;;
74528;SDS011;63009;52.584;5.932;2023-07-22T11:56:20;10.38;;;4.78;;
74528;SDS011;63009;52.584;5.932;2023-07-22T11:58:50;10.90;;;5.07;;
74528;SDS011;63009;52.584;5.932;2023-07-22T12:01:20;9.23;;;4.57;;
74528;SDS011;63009;52.584;5.932;2023-07-22T12:03:47;10.68;;;4.47;;
74528;SDS011;63009;52.584;5.932;2023-07-22T12:06:12;11.77;;;5.38;;
74528;SDS011;63009;52.584;5.932;2023-07-22T12:08:48;11.18;;;5.22;;
74528;SDS011;63009;52.584;5.932;2023-07-22T12:11:20;12.10;;;5.50;;
74528;SDS011;63009;52.584;5.932;2023-07-22T12:13:49;11.18;;;5.05;;
74528;SDS011;63009;52.584;5.932;2023-07-22T12:16:36;10.13;;;4.35;;
74528;SDS011;63009;52.584;5.932;2023-07-22T12:19:02;10.77;;;4.88;;
74528;SDS011;63009;52.584;5.932;2023-07-22T12:21:28;11.20;;;4.68;;
74528;SDS011;63009;52.584;5.932;2023-07-22T12:23:54;11.35;;;4.75;;
74528;SDS011;63009;52.584;5.932;2023-07-22T12:26:19;10.57;;;4.82;;
74528;SDS011;63009;52.584;5.932;2023-07-22T12:28:45;8.52;;;3.88;;
74528;SDS011;63009;52.584;5.932;2023-07-22T12:31:10;13.27;;;4.35;;
74528;SDS011;63009;52.584;5.932;2023-07-22T12:33:36;11.52;;;4.30;;
74528;SDS011;63009;52.584;5.932;2023-07-22T12:36:01;9.30;;;3.70;;
74528;SDS011;63009;52.584;5.932;2023-07-22T12:38:26;9.38;;;3.75;;
74528;SDS011;63009;52.584;5.932;2023-07-22T12:40:52;8.33;;;3.47;;
74528;SDS011;63009;52.584;5.932;2023-07-22T12:43:17;9.52;;;4.57;;
74528;SDS011;63009;52.584;5.932;2023-07-22T12:45:42;10.20;;;3.87;;
74528;SDS011;63009;52.584;5.932;2023-07-22T12:48:08;8.77;;;4.10;;
74528;SDS011;63009;52.584;5.932;2023-07-22T12:50:34;10.10;;;4.88;;
74528;SDS011;63009;52.584;5.932;2023-07-22T12:52:59;10.40;;;4.18;;
74528;SDS011;63009;52.584;5.932;2023-07-22T12:55:25;8.80;;;4.20;;
74528;SDS011;63009;52.584;5.932;2023-07-22T12:57:50;9.52;;;4.25;;
74528;SDS011;63009;52.584;5.932;2023-07-22T13:00:16;11.02;;;4.40;;
74528;SDS011;63009;52.584;5.932;2023-07-22T13:02:41;10.13;;;4.65;;
74528;SDS011;63009;52.584;5.932;2023-07-22T13:05:06;9.35;;;4.50;;
74528;SDS011;63009;52.584;5.932;2023-07-22T13:07:32;9.32;;;4.68;;
74528;SDS011;63009;52.584;5.932;2023-07-22T13:09:58;9.20;;;4.60;;
74528;SDS011;63009;52.584;5.932;2023-07-22T13:12:25;10.77;;;4.68;;
74528;SDS011;63009;52.584;5.932;2023-07-22T13:14:51;10.23;;;4.32;;
74528;SDS011;63009;52.584;5.932;2023-07-22T13:17:16;9.45;;;4.30;;
74528;SDS011;63009;52.584;5.932;2023-07-22T13:19:41;9.87;;;4.37;;
74528;SDS011;63009;52.584;5.932;2023-07-22T13:22:07;10.57;;;4.10;;
74528;SDS011;63009;52.584;5.932;2023-07-22T13:24:32;10.63;;;3.80;;
74528;SDS011;63009;52.584;5.932;2023-07-22T13:26:57;9.13;;;4.23;;
74528;SDS011;63009;52.584;5.932;2023-07-22T13:29:22;8.37;;;4.00;;
74528;SDS011;63009;52.584;5.932;2023-07-22T13:31:48;9.87;;;4.40;;
74528;SDS011;63009;52.584;5.932;2023-07-22T13:34:13;10.93;;;4.03;;
74528;SDS011;63009;52.584;5.932;2023-07-22T13:36:38;10.98;;;4.63;;
74528;SDS011;63009;52.584;5.932;2023-07-22T13:39:03;9.30;;;4.20;;
74528;SDS011;63009;52.584;5.932;2023-07-22T13:41:29;9.70;;;4.20;;
74528;SDS011;63009;52.584;5.932;2023-07-22T13:43:54;10.73;;;4.40;;
74528;SDS011;63009;52.584;5.932;2023-07-22T13:46:19;12.63;;;4.83;;
74528;SDS011;63009;52.584;5.932;2023-07-22T13:48:45;8.32;;;3.88;;
74528;SDS011;63009;52.584;5.932;2023-07-22T13:51:10;11.40;;;4.30;;
74528;SDS011;63009;52.584;5.932;2023-07-22T13:53:35;9.33;;;4.23;;
74528;SDS011;63009;52.584;5.932;2023-07-22T13:56:01;9.37;;;4.97;;
74528;SDS011;63009;52.584;5.932;2023-07-22T13:58:26;9.95;;;5.07;;
74528;SDS011;63009;52.584;5.932;2023-07-22T14:00:51;11.63;;;4.97;;
74528;SDS011;63009;52.584;5.932;2023-07-22T14:03:17;15.68;;;5.55;;
74528;SDS011;63009;52.584;5.932;2023-07-22T14:05:42;13.00;;;5.50;;
74528;SDS011;63009;52.584;5.932;2023-07-22T14:08:07;11.50;;;6.23;;
74528;SDS011;63009;52.584;5.932;2023-07-22T14:10:32;13.30;;;5.63;;
74528;SDS011;63009;52.584;5.932;2023-07-22T14:12:58;11.77;;;5.80;;
74528;SDS011;63009;52.584;5.932;2023-07-22T14:15:23;12.17;;;6.00;;
74528;SDS011;63009;52.584;5.932;2023-07-22T14:17:48;10.25;;;5.43;;
74528;SDS011;63009;52.584;5.932;2023-07-22T14:20:14;11.00;;;5.00;;
74528;SDS011;63009;52.584;5.932;2023-07-22T14:22:39;9.73;;;5.07;;
74528;SDS011;63009;52.584;5.932;2023-07-22T14:25:05;11.57;;;5.43;;
74528;SDS011;63009;52.584;5.932;2023-07-22T14:27:30;13.73;;;5.90;;
74528;SDS011;63009;52.584;5.932;2023-07-22T14:29:55;13.20;;;5.53;;
74528;SDS011;63009;52.584;5.932;2023-07-22T14:32:21;10.97;;;5.83;;
74528;SDS011;63009;52.584;5.932;2023-07-22T14:34:46;11.57;;;6.15;;
74528;SDS011;63009;52.584;5.932;2023-07-22T14:37:12;11.05;;;6.15;;
74528;SDS011;63009;52.584;5.932;2023-07-22T14:39:39;29.05;;;21.55;;
74528;SDS011;63009;52.584;5.932;2023-07-22T14:42:04;21.30;;;13.48;;
74528;SDS011;63009;52.584;5.932;2023-07-22T14:44:30;16.52;;;11.60;;
74528;SDS011;63009;52.584;5.932;2023-07-22T14:46:55;14.23;;;8.70;;
74528;SDS011;63009;52.584;5.932;2023-07-22T14:49:20;12.67;;;7.90;;
74528;SDS011;63009;52.584;5.932;2023-07-22T14:51:45;15.82;;;8.00;;